Ikermit

KL  EN  DA
ASIAQ
Weather Now GREENLAND SURVEY
Updated [WGT/WGST] Temperature [°C] Wind [m/s] Air pressure [hPa] Relative humidity [%] Precipitation [mm]
Present Wind chill Speed Max
21.01 19:00-11,4-26,625,2 ⇘32,498076n/a
21.01 18:00-11,3-27,329,3 ⇘35,597976n/a
21.01 17:00-11,4-27,630,4 ⇘36,697975n/a
21.01 16:00-10,9-26,729,3 ⇘37,198073n/a
21.01 15:00-10,8-26,327,8 ⇘34,098074n/a
21.01 14:00-10,4-25,627,3 ⇘33,597972n/a
21.01 13:00-10,3-25,326,3 ⇘34,597972n/a
21.01 12:00-10,4-25,426,3 ⇘34,097972n/a
21.01 11:00-10,0-25,730,9 ⇘37,197765n/a
21.01 10:00-10,2-25,829,9 ⇘38,697665n/a
21.01 09:00-10,0-25,027,3 ⇘34,597666n/a
21.01 08:00-9,6-25,533,5 ⇘41,297565n/a
21.01 07:00-10,4-25,627,3 ⇘34,597568n/a
21.01 06:00-10,6-26,027,8 ⇘34,597568n/a
21.01 05:00-10,9-25,925,2 ⇘32,497577n/a
21.01 04:00-11,0-26,025,2 ⇘31,997472n/a
21.01 03:00-11,4-26,524,7 ⇘30,997573n/a
21.01 02:00-11,8-27,325,7 ⇘31,997476n/a
21.01 01:00-12,1-27,223,2 ⇘29,997477n/a
21.01 00:00-11,1-24,618,5 ⇘23,797668n/a
20.01 23:00-10,4-22,113,4 ⇘18,097666n/a
20.01 22:00-9,9-20,19,8 ⇘13,997665n/a
20.01 21:00-9,6-18,98,2 ⇘11,397663n/a
20.01 20:00-9,7-19,69,3 ⇘12,497662n/a
20.01 19:00-10,4-21,311,3 ⇘13,997662n/a
Position: (64.781944444,-40.30166666)

[Back]